createdAt,value
2023-02-08T00:00:56.182Z,21.27
2023-02-08T00:03:22.985Z,17.77
2023-02-08T00:05:49.618Z,21.63
2023-02-08T00:08:16.281Z,20.90
2023-02-08T00:10:43.764Z,21.98
2023-02-08T00:13:10.351Z,21.30
2023-02-08T00:15:44.592Z,18.77
2023-02-08T00:20:42.592Z,20.02
2023-02-08T00:23:09.200Z,18.17
2023-02-08T00:25:36.572Z,18.27
2023-02-08T00:28:04.747Z,16.60
2023-02-08T00:30:31.893Z,17.42
2023-02-08T00:32:59.396Z,17.80
2023-02-08T00:35:26.244Z,16.88
2023-02-08T00:37:52.762Z,21.77
2023-02-08T00:40:19.370Z,24.10
2023-02-08T00:42:45.911Z,28.38
2023-02-08T00:45:12.520Z,29.02
2023-02-08T00:47:39.102Z,36.40
2023-02-08T00:50:07.023Z,36.55
2023-02-08T00:52:36.175Z,30.85
2023-02-08T00:55:05.646Z,27.10
2023-02-08T00:57:33.322Z,23.83
2023-02-08T00:59:59.884Z,16.33
2023-02-08T01:02:26.725Z,17.80
2023-02-08T01:04:53.222Z,17.33
2023-02-08T01:07:19.685Z,17.05
2023-02-08T01:09:46.235Z,18.08
2023-02-08T01:12:12.791Z,21.00
2023-02-08T01:14:40.299Z,20.65
2023-02-08T01:17:07.582Z,18.33
2023-02-08T01:19:34.369Z,21.17
2023-02-08T01:22:02.994Z,24.35
2023-02-08T01:24:29.525Z,16.85
2023-02-08T01:26:56.898Z,17.02
2023-02-08T01:29:23.401Z,21.27
2023-02-08T01:31:50.007Z,20.17
2023-02-08T01:34:16.644Z,18.02
2023-02-08T01:36:43.197Z,19.25
2023-02-08T01:39:10.986Z,20.90
2023-02-08T01:41:43.461Z,18.73
2023-02-08T01:44:13.294Z,20.27
2023-02-08T01:46:42.002Z,18.83
2023-02-08T01:49:15.456Z,17.67
2023-02-08T01:51:47.202Z,17.63
2023-02-08T01:54:15.683Z,15.82
2023-02-08T01:56:45.664Z,16.02
2023-02-08T01:59:23.734Z,18.45
2023-02-08T02:01:53.880Z,18.15
2023-02-08T02:04:20.916Z,17.33
2023-02-08T02:06:51.048Z,16.05
2023-02-08T02:09:42.512Z,18.15
2023-02-08T02:12:09.744Z,17.08
2023-02-08T02:14:38.638Z,14.60
2023-02-08T02:17:06.679Z,16.17
2023-02-08T02:20:03.388Z,19.60
2023-02-08T02:22:51.892Z,14.98
2023-02-08T02:25:58.410Z,18.13
2023-02-08T02:28:57.424Z,14.90
2023-02-08T02:31:47.869Z,16.65
2023-02-08T02:34:37.126Z,16.65
2023-02-08T02:37:38.747Z,16.13
2023-02-08T02:40:27.045Z,15.15
2023-02-08T02:43:29.874Z,18.88
2023-02-08T02:46:10.750Z,19.50
2023-02-08T02:48:53.051Z,19.90
2023-02-08T02:51:27.314Z,15.02
2023-02-08T02:56:36.309Z,15.10
2023-02-08T02:59:06.369Z,16.15
2023-02-08T03:01:33.900Z,15.10
2023-02-08T03:04:01.092Z,17.27
2023-02-08T03:06:56.542Z,18.48
2023-02-08T03:09:36.128Z,14.30
2023-02-08T03:12:20.244Z,18.00
2023-02-08T03:15:06.853Z,16.23
2023-02-08T03:17:35.292Z,14.18
2023-02-08T03:20:09.809Z,18.52
2023-02-08T03:22:56.471Z,16.52
2023-02-08T03:25:27.547Z,17.25
2023-02-08T03:28:14.285Z,16.25
2023-02-08T03:30:49.946Z,19.50
2023-02-08T03:33:31.183Z,14.57
2023-02-08T03:36:19.491Z,18.10
2023-02-08T03:38:47.979Z,17.52
2023-02-08T03:41:19.274Z,16.25
2023-02-08T03:43:58.480Z,18.58
2023-02-08T03:46:29.651Z,13.63
2023-02-08T03:49:04.535Z,16.23
2023-02-08T03:51:34.041Z,17.10
2023-02-08T03:54:04.611Z,13.38
2023-02-08T03:56:49.087Z,14.18
2023-02-08T03:59:26.202Z,15.30
2023-02-08T04:02:01.624Z,15.70
2023-02-08T04:04:32.668Z,13.63
2023-02-08T04:06:59.464Z,16.15
2023-02-08T04:09:25.972Z,15.05
2023-02-08T04:11:52.470Z,15.63
2023-02-08T04:14:18.961Z,17.27
2023-02-08T04:16:45.461Z,16.10
2023-02-08T04:19:11.970Z,14.73
2023-02-08T04:21:38.772Z,16.63
2023-02-08T04:24:05.599Z,17.27
2023-02-08T04:26:32.142Z,17.52
2023-02-08T04:28:58.700Z,18.40
2023-02-08T04:31:25.292Z,17.77
2023-02-08T04:33:52.032Z,16.92
2023-02-08T04:36:18.697Z,16.95
2023-02-08T04:38:45.304Z,17.00
2023-02-08T04:41:11.845Z,19.38
2023-02-08T04:43:38.356Z,13.00
2023-02-08T04:46:04.957Z,14.70
2023-02-08T04:48:31.447Z,17.10
2023-02-08T04:50:58.426Z,14.00
2023-02-08T04:53:25.521Z,18.42
2023-02-08T04:55:52.349Z,13.95
2023-02-08T04:58:19.260Z,14.73
2023-02-08T05:00:46.532Z,15.60
2023-02-08T05:03:13.572Z,19.08
2023-02-08T05:05:40.038Z,17.08
2023-02-08T05:08:07.154Z,14.90
2023-02-08T05:10:33.666Z,14.35
2023-02-08T05:13:00.209Z,15.13
2023-02-08T05:15:26.704Z,15.98
2023-02-08T05:17:53.249Z,14.55
2023-02-08T05:20:19.902Z,18.23
2023-02-08T05:22:46.858Z,32.08
2023-02-08T05:25:13.453Z,14.07
2023-02-08T05:27:39.948Z,16.23
2023-02-08T05:30:07.001Z,15.63
2023-02-08T05:32:33.521Z,15.75
2023-02-08T05:35:00.031Z,14.55
2023-02-08T05:37:26.609Z,16.27
2023-02-08T05:39:53.171Z,14.93
2023-02-08T05:42:19.734Z,17.08
2023-02-08T05:44:46.651Z,17.08
2023-02-08T05:47:13.159Z,16.70
2023-02-08T05:49:39.651Z,15.57
2023-02-08T05:52:06.229Z,18.42
2023-02-08T05:54:32.758Z,17.10
2023-02-08T05:56:59.228Z,16.58
2023-02-08T05:59:25.810Z,16.65
2023-02-08T06:01:52.286Z,15.35
2023-02-08T06:04:18.855Z,23.38
2023-02-08T06:06:45.367Z,18.48
2023-02-08T06:09:11.835Z,16.52
2023-02-08T06:11:38.359Z,13.60
2023-02-08T06:14:04.975Z,15.63
2023-02-08T06:16:31.560Z,14.73
2023-02-08T06:18:58.279Z,17.13
2023-02-08T06:21:24.860Z,19.98
2023-02-08T06:23:51.463Z,15.55
2023-02-08T06:26:17.979Z,17.58
2023-02-08T06:28:44.472Z,20.50
2023-02-08T06:31:10.926Z,21.65
2023-02-08T06:33:37.409Z,19.25
2023-02-08T06:36:03.995Z,15.65
2023-02-08T06:38:30.514Z,18.45
2023-02-08T06:41:12.108Z,13.73
2023-02-08T06:43:40.686Z,13.98
2023-02-08T06:46:08.612Z,14.40
2023-02-08T06:48:35.815Z,17.88
2023-02-08T06:51:02.368Z,16.05
2023-02-08T06:53:29.150Z,15.57
2023-02-08T06:55:55.698Z,15.52
2023-02-08T06:58:22.447Z,18.55
2023-02-08T07:00:49.067Z,19.73
2023-02-08T07:03:17.440Z,18.85
2023-02-08T07:05:58.800Z,18.63
2023-02-08T07:08:33.872Z,25.27
2023-02-08T07:11:00.516Z,16.92
2023-02-08T07:13:27.051Z,17.90
2023-02-08T07:15:53.585Z,15.75
2023-02-08T07:18:20.185Z,19.83
2023-02-08T07:20:48.933Z,15.68
2023-02-08T07:23:15.431Z,15.70
2023-02-08T07:25:41.962Z,20.13
2023-02-08T07:28:08.572Z,21.30
2023-02-08T07:30:35.260Z,19.50
2023-02-08T07:33:01.711Z,16.80
2023-02-08T07:35:28.241Z,18.38
2023-02-08T07:37:54.838Z,15.73
2023-02-08T07:40:23.540Z,16.77
2023-02-08T07:42:50.047Z,18.95
2023-02-08T07:45:27.818Z,17.92
2023-02-08T07:47:54.333Z,17.58
2023-02-08T07:50:21.040Z,16.98
2023-02-08T07:52:47.682Z,17.52
2023-02-08T07:55:18.653Z,17.10
2023-02-08T07:57:46.189Z,20.25
2023-02-08T08:00:14.274Z,19.77
2023-02-08T08:02:41.098Z,20.08
2023-02-08T08:05:08.177Z,20.48
2023-02-08T08:07:35.988Z,13.77
2023-02-08T08:10:16.069Z,19.58
2023-02-08T08:12:42.576Z,18.92
2023-02-08T08:15:09.331Z,14.98
2023-02-08T08:17:35.836Z,15.60
2023-02-08T08:20:02.547Z,22.23
2023-02-08T08:22:30.107Z,16.25
2023-02-08T08:25:00.030Z,20.88
2023-02-08T08:27:29.754Z,20.75
2023-02-08T08:29:59.867Z,18.15
2023-02-08T08:32:26.504Z,17.75
2023-02-08T08:34:53.009Z,21.17
2023-02-08T08:37:22.429Z,17.75
2023-02-08T08:39:48.950Z,17.00
2023-02-08T08:42:15.486Z,16.88
2023-02-08T08:44:42.226Z,14.95
2023-02-08T08:47:09.087Z,15.95
2023-02-08T08:49:35.600Z,20.67
2023-02-08T08:52:07.792Z,17.02
2023-02-08T08:54:34.938Z,15.32
2023-02-08T08:57:01.960Z,18.13
2023-02-08T08:59:28.487Z,13.73
2023-02-08T09:01:55.383Z,18.65
2023-02-08T09:04:24.869Z,16.10
2023-02-08T09:06:52.888Z,15.15
2023-02-08T09:09:20.469Z,15.95
2023-02-08T09:11:47.640Z,14.10
2023-02-08T09:14:14.499Z,15.55
2023-02-08T09:16:42.726Z,16.88
2023-02-08T09:19:10.346Z,14.52
2023-02-08T09:21:37.184Z,16.90
2023-02-08T09:24:04.525Z,12.57
2023-02-08T09:26:31.077Z,16.02
2023-02-08T09:28:57.908Z,12.73
2023-02-08T09:31:27.699Z,10.93
2023-02-08T09:33:57.510Z,15.80
2023-02-08T09:36:27.964Z,13.25
2023-02-08T09:39:00.838Z,13.25
2023-02-08T09:42:05.254Z,11.60
2023-02-08T09:44:40.468Z,15.80
2023-02-08T09:47:24.777Z,12.88
2023-02-08T09:50:02.427Z,16.25
2023-02-08T09:52:41.057Z,14.95
2023-02-08T09:55:34.717Z,13.60
2023-02-08T09:58:04.500Z,12.45
2023-02-08T10:00:35.645Z,13.63
2023-02-08T10:03:02.901Z,15.75
2023-02-08T10:05:31.342Z,15.77
2023-02-08T10:08:00.147Z,16.67
2023-02-08T10:10:45.233Z,15.43
2023-02-08T10:13:43.101Z,13.13
2023-02-08T10:16:46.432Z,15.63
2023-02-08T10:19:29.086Z,25.70
2023-02-08T10:22:12.761Z,12.90
2023-02-08T10:24:45.271Z,14.07
2023-02-08T10:27:34.953Z,12.52
2023-02-08T10:30:20.654Z,12.00
2023-02-08T10:33:02.487Z,12.73
2023-02-08T10:35:36.922Z,11.63
2023-02-08T10:38:45.460Z,16.77
2023-02-08T10:41:20.363Z,11.82
2023-02-08T10:44:22.982Z,12.27
2023-02-08T10:47:14.335Z,9.00
2023-02-08T10:49:47.437Z,8.90
2023-02-08T10:52:13.982Z,8.68
2023-02-08T10:54:40.564Z,8.30
2023-02-08T10:57:14.672Z,7.10
2023-02-08T10:59:57.356Z,7.03
2023-02-08T11:02:28.091Z,6.15
2023-02-08T11:05:19.026Z,6.80
2023-02-08T11:07:45.963Z,6.57
2023-02-08T11:10:18.478Z,9.23
2023-02-08T11:13:25.526Z,6.18
2023-02-08T11:15:55.473Z,7.60
2023-02-08T11:18:38.335Z,6.43
2023-02-08T11:21:34.810Z,9.65
2023-02-08T11:24:14.956Z,9.38
2023-02-08T11:26:42.929Z,10.82
2023-02-08T11:29:17.266Z,10.05
2023-02-08T11:31:59.444Z,11.05
2023-02-08T11:34:38.785Z,8.88
2023-02-08T11:37:28.512Z,9.80
2023-02-08T11:39:57.967Z,10.85
2023-02-08T11:42:28.983Z,10.18
2023-02-08T11:44:57.426Z,13.82
2023-02-08T11:47:30.879Z,12.73
2023-02-08T11:50:00.428Z,12.60
2023-02-08T11:52:42.652Z,10.20
2023-02-08T11:55:24.317Z,13.68
2023-02-08T11:58:10.030Z,10.98
2023-02-08T12:00:38.251Z,18.95
2023-02-08T12:03:14.090Z,8.68
2023-02-08T12:05:56.190Z,9.52
2023-02-08T12:08:46.617Z,9.88
2023-02-08T12:11:27.116Z,9.30
2023-02-08T12:14:23.068Z,8.88
2023-02-08T12:17:02.023Z,9.75
2023-02-08T12:20:13.129Z,9.25
2023-02-08T12:22:43.967Z,6.25
2023-02-08T12:25:29.284Z,7.25
2023-02-08T12:28:33.155Z,9.70
2023-02-08T12:31:08.854Z,6.72
2023-02-08T12:33:58.422Z,8.13
2023-02-08T12:37:11.095Z,6.47
2023-02-08T12:40:11.897Z,6.32
2023-02-08T12:42:51.957Z,7.07
2023-02-08T12:45:18.404Z,7.18
2023-02-08T12:48:03.327Z,8.88
2023-02-08T12:50:47.829Z,9.52
2023-02-08T12:53:33.251Z,5.07
2023-02-08T12:56:06.780Z,7.65
2023-02-08T12:58:46.818Z,7.18
2023-02-08T13:01:24.410Z,6.55
2023-02-08T13:03:57.242Z,8.52
2023-02-08T13:06:30.301Z,8.45
2023-02-08T13:09:12.521Z,12.38
2023-02-08T13:11:45.558Z,8.68
2023-02-08T13:14:23.248Z,12.73
2023-02-08T13:16:54.984Z,9.43
2023-02-08T13:19:32.495Z,13.35
2023-02-08T13:21:59.919Z,13.57
2023-02-08T13:24:42.179Z,11.50
2023-02-08T13:27:16.468Z,9.27
2023-02-08T13:29:47.139Z,11.40
2023-02-08T13:32:31.204Z,10.93
2023-02-08T13:35:06.962Z,11.35
2023-02-08T13:37:35.729Z,10.45
2023-02-08T13:40:06.629Z,12.45
2023-02-08T13:42:47.667Z,11.70
2023-02-08T13:45:26.986Z,11.60
2023-02-08T13:47:59.808Z,12.23
2023-02-08T13:50:35.230Z,11.80
2023-02-08T13:53:02.996Z,14.07
2023-02-08T13:55:33.385Z,12.30
2023-02-08T13:58:01.256Z,12.75
2023-02-08T14:00:36.697Z,11.40
2023-02-08T14:03:15.013Z,11.70
2023-02-08T14:05:58.091Z,10.48
2023-02-08T14:09:00.153Z,12.38
2023-02-08T14:11:40.588Z,9.85
2023-02-08T14:14:32.965Z,12.52
2023-02-08T14:17:19.302Z,10.52
2023-02-08T14:19:55.730Z,9.27
2023-02-08T14:22:22.552Z,10.82
2023-02-08T14:25:01.107Z,10.50
2023-02-08T14:27:33.239Z,11.43
2023-02-08T14:30:04.225Z,10.43
2023-02-08T14:32:34.879Z,20.40
2023-02-08T14:35:06.922Z,11.32
2023-02-08T14:37:35.971Z,11.75
2023-02-08T14:40:23.613Z,11.30
2023-02-08T14:43:16.859Z,11.88
2023-02-08T14:45:45.699Z,13.93
2023-02-08T14:48:28.566Z,10.00
2023-02-08T14:51:10.407Z,24.02
2023-02-08T14:53:48.845Z,15.18
2023-02-08T14:56:44.301Z,16.70
2023-02-08T14:59:31.973Z,13.35
2023-02-08T15:02:03.976Z,12.68
2023-02-08T15:04:30.961Z,10.65
2023-02-08T15:07:51.915Z,13.73
2023-02-08T15:10:20.915Z,12.07
2023-02-08T15:12:52.123Z,12.30
2023-02-08T15:15:28.298Z,12.23
2023-02-08T15:17:56.728Z,14.30
2023-02-08T15:20:26.319Z,13.70
2023-02-08T15:23:16.329Z,10.80
2023-02-08T15:25:42.907Z,15.23
2023-02-08T15:28:21.723Z,11.85
2023-02-08T15:31:05.808Z,12.93
2023-02-08T15:33:32.838Z,17.23
2023-02-08T15:36:08.109Z,11.07
2023-02-08T15:38:38.528Z,13.20
2023-02-08T15:41:11.253Z,12.07
2023-02-08T15:43:39.185Z,12.20
2023-02-08T15:46:16.551Z,13.55
2023-02-08T15:48:46.029Z,15.60
2023-02-08T15:51:16.906Z,12.55
2023-02-08T15:53:46.195Z,12.68
2023-02-08T15:56:27.034Z,11.82
2023-02-08T15:59:03.495Z,14.30
2023-02-08T16:01:31.880Z,13.60
2023-02-08T16:04:00.259Z,12.98
2023-02-08T16:06:29.424Z,12.30
2023-02-08T16:08:59.965Z,13.38
2023-02-08T16:11:30.155Z,12.15
2023-02-08T16:13:59.104Z,13.25
2023-02-08T16:16:39.596Z,13.32
2023-02-08T16:19:26.115Z,18.05
2023-02-08T16:21:55.643Z,16.17
2023-02-08T16:24:25.590Z,20.55
2023-02-08T16:26:57.286Z,54.00
2023-02-08T16:29:29.857Z,13.40
2023-02-08T16:32:03.583Z,15.50
2023-02-08T16:34:33.092Z,13.82
2023-02-08T16:37:00.523Z,12.57
2023-02-08T16:39:39.667Z,16.42
2023-02-08T16:42:20.624Z,14.48
2023-02-08T16:44:59.383Z,15.13
2023-02-08T16:47:37.263Z,14.23
2023-02-08T16:50:05.507Z,14.68
2023-02-08T16:52:33.227Z,16.80
2023-02-08T16:55:00.476Z,14.10
2023-02-08T16:57:48.207Z,15.40
2023-02-08T17:00:29.625Z,14.00
2023-02-08T17:02:57.047Z,16.67
2023-02-08T17:05:26.908Z,20.30
2023-02-08T17:07:53.549Z,16.92
2023-02-08T17:10:29.098Z,13.85
2023-02-08T17:13:09.818Z,17.33
2023-02-08T17:15:43.592Z,15.23
2023-02-08T17:18:11.662Z,16.02
2023-02-08T17:20:38.167Z,16.80
2023-02-08T17:23:06.360Z,18.48
2023-02-08T17:25:34.693Z,16.23
2023-02-08T17:28:04.808Z,20.02
2023-02-08T17:30:36.004Z,16.05
2023-02-08T17:33:03.963Z,23.95
2023-02-08T17:35:33.543Z,25.20
2023-02-08T17:38:00.279Z,27.80
2023-02-08T17:40:31.045Z,18.48
2023-02-08T17:42:58.347Z,21.48
2023-02-08T17:45:28.218Z,18.35
2023-02-08T17:47:56.330Z,37.88
2023-02-08T17:50:23.618Z,108.13
2023-02-08T17:52:50.306Z,29.67
2023-02-08T17:55:20.815Z,47.78
2023-02-08T17:57:47.783Z,196.32
2023-02-08T18:00:17.095Z,245.80
2023-02-08T18:02:49.541Z,95.93
2023-02-08T18:05:17.912Z,42.55
2023-02-08T18:07:44.422Z,36.42
2023-02-08T18:10:13.147Z,36.63
2023-02-08T18:12:39.944Z,26.55
2023-02-08T18:15:09.054Z,23.90
2023-02-08T18:17:35.886Z,27.60
2023-02-08T18:20:02.820Z,27.98
2023-02-08T18:22:29.845Z,27.05
2023-02-08T18:24:56.462Z,30.42
2023-02-08T18:27:25.009Z,38.08
2023-02-08T18:29:51.659Z,41.78
2023-02-08T18:32:20.249Z,28.88
2023-02-08T18:34:47.343Z,31.83
2023-02-08T18:37:13.906Z,29.35
2023-02-08T18:39:40.425Z,27.60
2023-02-08T18:42:07.305Z,23.48
2023-02-08T18:44:36.758Z,24.55
2023-02-08T18:47:03.963Z,22.90
2023-02-08T18:49:31.264Z,20.40
2023-02-08T18:51:58.531Z,30.58
2023-02-08T18:54:25.155Z,29.52
2023-02-08T18:56:54.685Z,27.13
2023-02-08T18:59:21.346Z,36.28
2023-02-08T19:01:48.140Z,25.10
2023-02-08T19:04:19.257Z,22.20
2023-02-08T19:06:45.813Z,24.90
2023-02-08T19:09:12.372Z,28.33
2023-02-08T19:11:40.578Z,27.13
2023-02-08T19:14:10.576Z,24.30
2023-02-08T19:16:37.587Z,26.55
2023-02-08T19:19:05.538Z,24.98
2023-02-08T19:21:33.523Z,22.40
2023-02-08T19:24:00.682Z,32.45
2023-02-08T19:26:30.613Z,32.78
2023-02-08T19:28:59.253Z,35.33
2023-02-08T19:31:27.252Z,31.25
2023-02-08T19:33:57.746Z,46.13
2023-02-08T19:36:27.594Z,92.60
2023-02-08T19:38:54.549Z,65.47
2023-02-08T19:41:27.771Z,50.58
2023-02-08T19:43:54.523Z,38.83
2023-02-08T19:46:23.857Z,39.53
2023-02-08T19:48:51.068Z,37.65
2023-02-08T19:51:19.242Z,31.15
2023-02-08T19:53:46.431Z,25.00
2023-02-08T19:56:15.870Z,22.75
2023-02-08T19:58:42.823Z,20.15
2023-02-08T20:01:13.036Z,21.70
2023-02-08T20:03:40.382Z,20.98
2023-02-08T20:06:18.306Z,19.67
2023-02-08T20:08:45.188Z,21.65
2023-02-08T20:11:23.446Z,18.60
2023-02-08T20:13:50.875Z,18.13
2023-02-08T20:16:17.819Z,23.83
2023-02-08T20:18:44.698Z,21.90
2023-02-08T20:21:11.698Z,16.50
2023-02-08T20:23:38.896Z,20.85
2023-02-08T20:26:16.119Z,17.80
2023-02-08T20:28:44.864Z,14.85
2023-02-08T20:31:21.824Z,12.85
2023-02-08T20:33:50.387Z,18.98
2023-02-08T20:36:22.646Z,16.75
2023-02-08T20:38:51.605Z,16.23
2023-02-08T20:41:19.457Z,17.80
2023-02-08T20:43:46.868Z,17.20
2023-02-08T20:46:23.015Z,20.23
2023-02-08T20:48:50.629Z,15.85
2023-02-08T20:51:21.091Z,21.23
2023-02-08T20:53:48.469Z,19.80
2023-02-08T20:56:24.231Z,19.38
2023-02-08T20:58:50.948Z,22.65
2023-02-08T21:01:28.436Z,22.45
2023-02-08T21:03:56.491Z,31.48
2023-02-08T21:06:26.487Z,21.25
2023-02-08T21:08:55.272Z,19.73
2023-02-08T21:11:24.180Z,24.52
2023-02-08T21:13:50.884Z,23.65
2023-02-08T21:16:18.343Z,23.50
2023-02-08T21:18:45.673Z,22.85
2023-02-08T21:21:12.405Z,44.33
2023-02-08T21:23:38.938Z,23.10
2023-02-08T21:26:08.020Z,19.58
2023-02-08T21:28:35.480Z,19.52
2023-02-08T21:31:07.610Z,22.48
2023-02-08T21:33:34.510Z,20.00
2023-02-08T21:36:03.043Z,21.15
2023-02-08T21:38:29.845Z,20.27
2023-02-08T21:40:56.318Z,19.05
2023-02-08T21:43:22.919Z,23.17
2023-02-08T21:45:49.459Z,25.40
2023-02-08T21:48:15.988Z,22.38
2023-02-08T21:51:01.144Z,19.33
2023-02-08T21:53:46.002Z,18.85
2023-02-08T21:56:12.552Z,21.70
2023-02-08T21:58:39.077Z,21.77
2023-02-08T22:01:05.935Z,19.00
2023-02-08T22:03:34.306Z,22.23
2023-02-08T22:06:19.474Z,26.67
2023-02-08T22:08:46.223Z,22.58
2023-02-08T22:11:14.500Z,24.45
2023-02-08T22:13:43.499Z,21.63
2023-02-08T22:16:10.608Z,26.80
2023-02-08T22:18:38.496Z,24.40
2023-02-08T22:21:05.359Z,26.40
2023-02-08T22:23:31.862Z,25.58
2023-02-08T22:25:58.352Z,24.02
2023-02-08T22:28:24.890Z,24.27
2023-02-08T22:30:51.560Z,24.55
2023-02-08T22:33:18.195Z,23.60
2023-02-08T22:35:44.757Z,24.40
2023-02-08T22:38:11.301Z,23.05
2023-02-08T22:40:40.808Z,21.30
2023-02-08T22:43:07.305Z,21.27
2023-02-08T22:45:34.168Z,22.63
2023-02-08T22:48:00.666Z,22.83
2023-02-08T22:50:27.145Z,22.55
2023-02-08T22:52:53.637Z,19.50
2023-02-08T22:55:20.157Z,21.02
2023-02-08T22:57:46.768Z,26.40
2023-02-08T23:00:14.861Z,25.05
2023-02-08T23:02:41.487Z,21.67
2023-02-08T23:05:08.252Z,21.08
2023-02-08T23:07:34.852Z,26.60
2023-02-08T23:10:01.585Z,21.25
2023-02-08T23:12:29.379Z,22.98
2023-02-08T23:14:56.121Z,22.55
2023-02-08T23:17:22.625Z,23.35
2023-02-08T23:19:49.090Z,22.50
2023-02-08T23:22:15.597Z,20.75
2023-02-08T23:24:42.141Z,24.02
2023-02-08T23:27:08.776Z,24.48
2023-02-08T23:29:36.094Z,22.67
2023-02-08T23:32:02.702Z,20.25
2023-02-08T23:34:29.354Z,21.92
2023-02-08T23:36:55.840Z,23.90
2023-02-08T23:39:22.347Z,24.75
2023-02-08T23:41:49.013Z,21.80
2023-02-08T23:44:15.634Z,28.45
2023-02-08T23:46:42.198Z,22.73
2023-02-08T23:49:08.743Z,25.65
2023-02-08T23:51:35.263Z,25.70
2023-02-08T23:54:01.776Z,25.73
2023-02-08T23:56:31.838Z,22.70
2023-02-08T23:58:59.325Z,25.08
